Impacts METAR Board
IDs:

KMSP - Minneapolis-St Paul, MN, US

Updated at: 1100 UTC 09 Jul 2020
Potential Impact None Slight Moderate High
Time 08/23Z 09/00Z 09/01Z 09/02Z 09/03Z 09/04Z 09/05Z 09/06Z 09/07Z 09/08Z 09/09Z 09/10Z 09/11Z
Temp92 92 90 88 87 86 86 83 80 80 79 74 73
Dewpt70 71 72 71 70 70 70 71 72 72 72 67 70
Altim29.76 29.76 29.76 29.74 29.75 29.75 29.73 29.75 29.77 29.79 29.77 29.81 29.76
VIS10 10 10 10 10 10 10 10 10 10 10 2 10
CIG300 300 -- -- -- -- -- 300 200 210 210 42 200
CoverBKNBKNSCTSCTSCTSCTFEWBKNOVCBKNBKNOVCOVC
FltCatVFRVFRVFRVFRVFRVFRVFRVFRVFRVFRVFRIFRVFR
WX----------------------+TSRA-RA
WDir21020020020021021018017017014018023080
WSpd11 11 10 10 8 6 13 8 5 4 6 10 5
WGst21 -- 17 -- 17 -- 21 -- -- -- -- -- --
Raw hourly METARs
KMSP 082253Z 21011G21KT 10SM SCT055 BKN300 33/21 A2976 RMK AO2 PK WND 24029/2206 SLP070 T03330211
KMSP 082353Z 20011KT 10SM SCT055 BKN300 33/22 A2976 RMK AO2 SLP071 T03330217 10339 20300 55004
KMSP 090053Z 20010G17KT 10SM FEW055 SCT300 32/22 A2976 RMK AO2 SLP069 T03220222
KMSP 090153Z 20010KT 10SM FEW055 SCT300 31/22 A2974 RMK AO2 SLP063 CB DSNT N T03110217
KMSP 090253Z 21008G17KT 10SM FEW050 SCT300 31/21 A2975 RMK AO2 SLP067 CB DSNT NW-N T03060211 55003
KMSP 090353Z 21006KT 10SM FEW050 SCT300 30/21 A2975 RMK AO2 SLP067 CB DSNT NW-NE T03000211
KMSP 090453Z 18013G21KT 10SM FEW300 30/21 A2973 RMK AO2 SLP060 CB DSNT NE T03000211
KMSP 090553Z 17008KT 10SM BKN300 28/22 A2975 RMK AO2 SLP067 T02830217 10333 20283 403390228 53001
KMSP 090653Z 17005KT 10SM BKN200 OVC300 27/22 A2977 RMK AO2 SLP074 T02670222
KMSP 090753Z 14004KT 10SM BKN210 27/22 A2979 RMK AO2 SLP080 T02670222
KMSP 090853Z 18006KT 10SM FEW065 BKN210 26/22 A2977 RMK AO2 SLP073 CB DSNT W-N T02610222 50006
KMSP 090956Z 23010KT 2SM R30L/4000VP6000FT +TSRA FEW011 BKN042CB OVC070 23/19 A2981 RMK AO2 LTG DSNT NE AND SW TS OHD MOV E P0002 T02330194
KMSP 091053Z 08005KT 10SM -RA FEW048 OVC200 23/21 A2976 RMK AO2 LTG DSNT NE-S RAE12B17E27B46 TSE07 SLP070 P0033 T02280211



Page loaded:  11:46 UTC  |   04:46 AM Pacific  |   05:46 AM Mountain  |   06:46 AM Central  |   07:46 AM Eastern

 

ADVISORIES

FORECASTS

FORECASTS

OBSERVATIONS

USER TOOLS

ABOUT US